Gregg, Texas
Current Conditions -  °F | °C
As of 9:35 PM on Sunday 23 Nov 2014 (Local Time) from KEDC Reporting Station
Overcast Overcast  
Wind Chill: 64°   Ceiling: 4300
Heat Index: 64°   Visibility: 10mi
Dew Point: 41°   Wind: 15mph
Humidity: 42%   Direction: 340°NNW
Pressure: 29.75"   Gusts: 23mph
Location:  30.352°N, 97.5205°W
Report Text: KEDC 240335Z AUTO 34013G20KT 10SM OVC043 18/05 A2975 RMK AO2
Loading
Personal Weather Stations






























Interactive Weather Map New forecast layout! Learn more

10-Day Weather Forecast

Advertisements
Track Severe Weather on mobile